Forside
METAR-TAF:

METAR-TAF

Lufthavne :

Muskegon County Airport

Muskegon, Michigan, USA

Breddekreds: 43-10-16N, længdekreds: 086-14-12W, højde: 191 m

Aktuelle vejr

Denne rapport blev lavet for 34 minutter siden, kl. 17:55 UTC
Vind 9 kt fra sydsydvest
Temperatur 26°C
Fugtighed 48%
Tryk 1019 hPa
Sigt: 16.1 km
Nogle få skyer i en højde af 4000 ft
Brudte skyer i en højde af 23000 ft

METAR: KMKG 031755Z 21009KT 10SM FEW040 BKN230 26/14 A3010 RMK AO2 SLP190 T02560144 10256 20156 58007

Tid: 14:29 (18:29 UTC)

Vejrudsigter

Denne rapport blev lavet for 51 minutter siden, kl. 17:38 UTC
Foreløbig gælder fra 03 på 18 UTC til 04 på 18 UTC
Vind 6 kt fra vestsydvest
Sigt: 10 km
Spredte skyer i en højde af 8000 ft
Fra 04 på 0000 UTC
Vind kt fra nord
Sigt: 10 km
Brudte skyer i en højde af 20000 ft

TAF: KMKG 031738Z 0318/0418 25006KT P6SM SCT080 FM040000 00000KT P6SM BKN200

Vejrobservationer og prognoser fra mere end 4000 lufthavne (METAR og TAF).

De gule og røde prikker repræsenterer de meteorologiske stationer.

Flyt musen over at se navnet på stationen.

Så klik over at se vejr observationer og prognoser.

At skifte det kort: Klik på de grønne knapper med et sort kors for at zoome ind; på den grønne knap med en bindestreg for at zoome ud; eller på de grønne pile for tilstødende kort.


METAR-TAF: